createdAt,value
2023-03-29T00:00:07.359Z,78.1
2023-03-29T00:02:35.621Z,78.6
2023-03-29T00:07:32.131Z,78.3
2023-03-29T00:10:00.387Z,79.3
2023-03-29T00:12:28.645Z,78.6
2023-03-29T00:13:43.377Z,78.1
2023-03-29T00:14:56.923Z,78.7
2023-03-29T00:17:25.182Z,79
2023-03-29T00:19:53.435Z,78.8
2023-03-29T00:22:21.692Z,79.2
2023-03-29T00:24:49.947Z,80.2
2023-03-29T00:27:18.205Z,78.8
2023-03-29T00:29:46.464Z,78.6
2023-03-29T00:32:14.727Z,79.5
2023-03-29T00:34:42.981Z,76.4
2023-03-29T00:38:25.972Z,75.4
2023-03-29T00:39:39.517Z,77.4
2023-03-29T00:42:07.770Z,76.7
2023-03-29T00:44:36.027Z,76.5
2023-03-29T00:47:04.282Z,76.4
2023-03-29T00:49:32.541Z,74.5
2023-03-29T00:52:00.798Z,73.2
2023-03-29T00:54:29.061Z,71.7
2023-03-29T00:56:57.313Z,71
2023-03-29T00:59:25.574Z,70
2023-03-29T01:01:53.826Z,70.2
2023-03-29T01:03:08.561Z,72.2
2023-03-29T01:04:22.111Z,70.6
2023-03-29T01:09:18.621Z,70.5
2023-03-29T01:11:46.883Z,70.8
2023-03-29T01:14:15.135Z,70.9
2023-03-29T01:16:43.399Z,69.7
2023-03-29T01:19:11.650Z,70.8
2023-03-29T01:21:39.911Z,72.8
2023-03-29T01:24:08.166Z,72.2
2023-03-29T01:26:36.429Z,74.3
2023-03-29T01:27:51.153Z,72.6
2023-03-29T01:29:04.706Z,74
2023-03-29T01:31:32.955Z,74.5
2023-03-29T01:34:01.220Z,74.8
2023-03-29T01:36:29.475Z,74.9
2023-03-29T01:41:25.991Z,73.9
2023-03-29T01:43:54.245Z,73.2
2023-03-29T01:48:50.756Z,73.8
2023-03-29T01:51:19.019Z,73.3
2023-03-29T01:52:33.756Z,73
2023-03-29T01:53:47.296Z,73.4
2023-03-29T01:56:15.552Z,73.9
2023-03-29T01:58:43.808Z,74.6
2023-03-29T02:01:12.070Z,74.8
2023-03-29T02:03:40.326Z,74.6
2023-03-29T02:06:08.581Z,75.3
2023-03-29T02:08:36.845Z,76.2
2023-03-29T02:13:33.353Z,75.5
2023-03-29T02:16:01.615Z,71.3
2023-03-29T02:17:16.349Z,71.3
2023-03-29T02:18:29.889Z,72.2
2023-03-29T02:20:58.153Z,72.2
2023-03-29T02:23:26.409Z,73.1
2023-03-29T02:25:54.663Z,74.4
2023-03-29T02:28:22.919Z,72.8
2023-03-29T02:30:51.183Z,71.9
2023-03-29T02:33:19.440Z,70.6
2023-03-29T02:35:47.691Z,70.6
2023-03-29T02:38:15.947Z,71.2
2023-03-29T02:40:44.210Z,72
2023-03-29T02:43:12.468Z,71.1
2023-03-29T02:45:40.725Z,72.1
2023-03-29T02:48:08.979Z,71.9
2023-03-29T02:50:37.243Z,69.5
2023-03-29T02:53:05.493Z,71
2023-03-29T02:55:33.755Z,71.1
2023-03-29T02:58:02.014Z,68.4
2023-03-29T03:00:30.268Z,67.3
2023-03-29T03:02:58.526Z,67.4
2023-03-29T03:05:26.781Z,69
2023-03-29T03:06:41.535Z,70.3
2023-03-29T03:07:55.075Z,70.1
2023-03-29T03:10:23.339Z,70.8
2023-03-29T03:15:19.855Z,70.1
2023-03-29T03:17:48.106Z,71.2
2023-03-29T03:20:16.364Z,72.5
2023-03-29T03:22:44.625Z,71.4
2023-03-29T03:25:12.880Z,70.2
2023-03-29T03:27:41.142Z,70.8
2023-03-29T03:30:09.396Z,70.8
2023-03-29T03:31:24.131Z,70.7
2023-03-29T03:32:37.679Z,70.5
2023-03-29T03:35:05.933Z,69.7
2023-03-29T03:37:34.188Z,71
2023-03-29T03:40:02.443Z,70.1
2023-03-29T03:42:30.705Z,72.3
2023-03-29T03:47:27.213Z,74.1
2023-03-29T03:49:55.477Z,74.8
2023-03-29T03:52:23.729Z,74.5
2023-03-29T03:54:51.991Z,75.7
2023-03-29T03:56:06.723Z,75.2
2023-03-29T03:57:20.265Z,75.7
2023-03-29T03:59:48.529Z,75.8
2023-03-29T04:02:16.779Z,75.7
2023-03-29T04:04:45.040Z,75.3
2023-03-29T04:07:13.300Z,76.5
2023-03-29T04:09:41.550Z,78
2023-03-29T04:12:09.816Z,78.2
2023-03-29T04:14:38.066Z,76
2023-03-29T04:19:34.585Z,76.5
2023-03-29T04:20:49.320Z,76.3
2023-03-29T04:22:02.857Z,75.7
2023-03-29T04:24:31.122Z,75.3
2023-03-29T04:26:59.376Z,76.2
2023-03-29T04:29:27.630Z,75.3
2023-03-29T04:31:55.891Z,76.8
2023-03-29T04:34:24.150Z,79.1
2023-03-29T04:36:52.406Z,78
2023-03-29T04:39:20.665Z,80
2023-03-29T04:41:48.922Z,79.3
2023-03-29T04:44:17.178Z,80.8
2023-03-29T04:45:31.912Z,80.7
2023-03-29T04:49:13.945Z,80.5
2023-03-29T04:51:42.201Z,81.4
2023-03-29T04:54:10.463Z,82.8
2023-03-29T04:56:38.715Z,82.3
2023-03-29T04:59:06.971Z,81.3
2023-03-29T05:01:35.233Z,82.4
2023-03-29T05:04:03.491Z,82.7
2023-03-29T05:06:31.748Z,82.3
2023-03-29T05:09:00.004Z,83.4
2023-03-29T05:10:14.740Z,84.6
2023-03-29T05:11:28.286Z,84.8
2023-03-29T05:13:56.542Z,84.7
2023-03-29T05:16:24.800Z,84
2023-03-29T05:21:21.314Z,84.7
2023-03-29T05:23:49.572Z,85
2023-03-29T05:26:17.826Z,83.8
2023-03-29T05:28:46.084Z,85.9
2023-03-29T05:31:14.343Z,85.8
2023-03-29T05:33:42.598Z,85.5
2023-03-29T05:34:57.332Z,85.9
2023-03-29T05:36:10.878Z,82.5
2023-03-29T05:38:39.140Z,83.8
2023-03-29T05:41:07.398Z,84.6
2023-03-29T05:43:35.655Z,81.6
2023-03-29T05:46:03.904Z,83.1
2023-03-29T05:48:32.168Z,86
2023-03-29T05:53:28.679Z,85.1
2023-03-29T05:55:56.941Z,86.3
2023-03-29T05:58:25.190Z,85.4
2023-03-29T05:59:39.929Z,85.1
2023-03-29T06:00:53.469Z,85.2
2023-03-29T06:03:21.725Z,85.8
2023-03-29T06:05:49.982Z,86
2023-03-29T06:08:18.242Z,83.2
2023-03-29T06:10:46.503Z,83.8
2023-03-29T06:13:14.760Z,81.8
2023-03-29T06:15:43.017Z,81.8
2023-03-29T06:18:11.270Z,84.5
2023-03-29T06:20:39.528Z,84
2023-03-29T06:24:22.516Z,80.8
2023-03-29T06:25:36.064Z,81.5
2023-03-29T06:28:04.324Z,80
2023-03-29T06:30:32.582Z,80.1
2023-03-29T06:33:00.842Z,80.4
2023-03-29T06:35:29.100Z,78.4
2023-03-29T06:37:57.349Z,77.9
2023-03-29T06:40:25.614Z,79.6
2023-03-29T06:42:53.867Z,77.3
2023-03-29T06:45:22.126Z,78.4
2023-03-29T06:47:50.388Z,79.9
2023-03-29T06:49:05.113Z,78
2023-03-29T06:50:18.659Z,77.5
2023-03-29T06:55:15.171Z,79.5
2023-03-29T06:57:43.437Z,78.2
2023-03-29T07:00:11.687Z,79.5
2023-03-29T07:02:39.948Z,77.4
2023-03-29T07:05:08.203Z,78.9
2023-03-29T07:07:36.464Z,78.5
2023-03-29T07:10:04.721Z,77
2023-03-29T07:12:32.969Z,80.4
2023-03-29T07:13:47.708Z,80
2023-03-29T07:15:01.253Z,80.9
2023-03-29T07:17:29.504Z,80
2023-03-29T07:19:57.761Z,79
2023-03-29T07:22:26.017Z,78.9
2023-03-29T07:27:22.534Z,78.7
2023-03-29T07:29:50.790Z,79.7
2023-03-29T07:32:19.052Z,81.3
2023-03-29T07:34:47.304Z,79.6
2023-03-29T07:37:15.560Z,79.7
2023-03-29T07:38:30.299Z,79.7
2023-03-29T07:39:43.840Z,79.8
2023-03-29T07:42:12.093Z,79.5
2023-03-29T07:44:40.347Z,80.6
2023-03-29T07:47:08.612Z,80.2
2023-03-29T07:49:36.863Z,79.6
2023-03-29T07:52:05.123Z,78.5
2023-03-29T07:54:33.377Z,80.7
2023-03-29T07:59:29.892Z,81.8
2023-03-29T08:01:58.145Z,80.8
2023-03-29T08:03:12.880Z,80.9
2023-03-29T08:04:26.425Z,83.2
2023-03-29T08:06:54.680Z,82.2
2023-03-29T08:09:22.940Z,83.8
2023-03-29T08:11:51.198Z,85.5
2023-03-29T08:14:19.458Z,84.4
2023-03-29T08:16:47.714Z,84.4
2023-03-29T08:19:15.973Z,86.2
2023-03-29T08:21:44.228Z,84.7
2023-03-29T08:24:12.479Z,82.2
2023-03-29T08:26:40.743Z,82.6
2023-03-29T08:29:09.004Z,81.9
2023-03-29T08:31:37.254Z,83.6
2023-03-29T08:34:05.515Z,81.8
2023-03-29T08:36:33.773Z,83.2
2023-03-29T08:39:02.031Z,82.5
2023-03-29T08:41:30.283Z,81.2
2023-03-29T08:43:58.545Z,82.2
2023-03-29T08:46:26.807Z,82.6
2023-03-29T08:48:55.061Z,82.9
2023-03-29T08:51:23.317Z,83
2023-03-29T08:52:38.069Z,83.4
2023-03-29T08:53:51.612Z,81.2
2023-03-29T08:56:19.865Z,83.4
2023-03-29T09:01:16.382Z,84
2023-03-29T09:03:44.640Z,85.9
2023-03-29T09:06:12.894Z,83.6
2023-03-29T09:08:41.150Z,85.2
2023-03-29T09:11:09.409Z,85.5
2023-03-29T09:13:37.669Z,84.5
2023-03-29T09:16:05.926Z,84.8
2023-03-29T09:17:20.656Z,86.2
2023-03-29T09:18:34.203Z,86.1
2023-03-29T09:21:02.459Z,84.3
2023-03-29T09:23:30.714Z,83.5
2023-03-29T09:25:58.972Z,84.9
2023-03-29T09:28:27.235Z,86.1
2023-03-29T09:33:23.742Z,86.1
2023-03-29T09:35:52.000Z,87.1
2023-03-29T09:38:20.264Z,86.8
2023-03-29T09:40:48.519Z,86
2023-03-29T09:42:03.251Z,85.8
2023-03-29T09:43:16.795Z,86.9
2023-03-29T09:45:45.057Z,86.5
2023-03-29T09:48:13.307Z,86.2
2023-03-29T09:50:41.568Z,88.1
2023-03-29T09:53:09.822Z,86.4
2023-03-29T09:55:38.084Z,87.1
2023-03-29T09:58:06.338Z,86.7
2023-03-29T10:00:34.596Z,87.7
2023-03-29T10:05:31.112Z,87.3
2023-03-29T10:06:45.846Z,88.1
2023-03-29T10:07:59.390Z,87.8
2023-03-29T10:10:27.642Z,87.3
2023-03-29T10:12:55.906Z,88
2023-03-29T10:15:24.158Z,87.7
2023-03-29T10:17:52.411Z,88.2
2023-03-29T10:20:20.672Z,87.8
2023-03-29T10:22:48.932Z,89.2
2023-03-29T10:25:17.191Z,88.9
2023-03-29T10:27:45.441Z,88.3
2023-03-29T10:30:13.703Z,88.8
2023-03-29T10:31:28.437Z,89.3
2023-03-29T10:35:10.465Z,87.3
2023-03-29T10:37:38.723Z,88.1
2023-03-29T10:42:35.234Z,89.6
2023-03-29T10:45:03.491Z,87.4
2023-03-29T10:47:31.750Z,89.3
2023-03-29T10:50:00.004Z,87.9
2023-03-29T10:52:28.265Z,89.4
2023-03-29T10:54:56.524Z,89.8
2023-03-29T10:56:11.256Z,89.3
2023-03-29T10:57:24.803Z,88.6
2023-03-29T10:59:53.051Z,88.6
2023-03-29T11:02:21.308Z,87.9
2023-03-29T11:07:17.827Z,88.4
2023-03-29T11:09:46.083Z,86.5
2023-03-29T11:12:14.337Z,84.6
2023-03-29T11:14:42.601Z,85.6
2023-03-29T11:17:10.859Z,82.7
2023-03-29T11:19:39.114Z,81.9
2023-03-29T11:20:53.845Z,83.6
2023-03-29T11:22:07.389Z,81.8
2023-03-29T11:24:35.647Z,80.6
2023-03-29T11:27:03.907Z,79.6
2023-03-29T11:29:32.160Z,81.8
2023-03-29T11:32:00.418Z,81.5
2023-03-29T11:34:28.676Z,80.7
2023-03-29T11:39:25.183Z,81.2
2023-03-29T11:41:53.441Z,81.1
2023-03-29T11:44:21.700Z,80.2
2023-03-29T11:45:36.437Z,80.8
2023-03-29T11:46:49.975Z,81.3
2023-03-29T11:49:18.235Z,81.6
2023-03-29T11:51:46.501Z,82.3
2023-03-29T11:54:14.744Z,82.4
2023-03-29T11:56:43.001Z,82.7
2023-03-29T11:59:11.264Z,80.9
2023-03-29T12:01:39.516Z,82.7
2023-03-29T12:04:07.777Z,82.4
2023-03-29T12:06:36.028Z,82.3
2023-03-29T12:10:19.024Z,80.8
2023-03-29T12:11:32.566Z,78
2023-03-29T12:14:00.826Z,76.5
2023-03-29T12:16:29.078Z,76.9
2023-03-29T12:18:57.334Z,75
2023-03-29T12:21:25.596Z,73.7
2023-03-29T12:23:53.850Z,71.9
2023-03-29T12:26:22.104Z,70.1
2023-03-29T12:28:50.366Z,71.5
2023-03-29T12:31:18.623Z,74.4
2023-03-29T12:33:46.879Z,76.1
2023-03-29T12:35:01.612Z,76.4
2023-03-29T12:36:15.152Z,75.3
2023-03-29T12:43:39.923Z,78
2023-03-29T12:46:08.180Z,78.5
2023-03-29T12:48:36.441Z,81.9
2023-03-29T12:51:04.698Z,81.3
2023-03-29T12:53:32.948Z,79.5
2023-03-29T12:56:01.207Z,81.2
2023-03-29T12:58:29.459Z,80.9
2023-03-29T12:59:44.201Z,81.4
2023-03-29T13:00:57.739Z,80.8
2023-03-29T13:03:25.995Z,81.3
2023-03-29T13:05:54.255Z,83.4
2023-03-29T13:08:22.513Z,83.7
2023-03-29T13:13:19.025Z,84.3
2023-03-29T13:15:47.281Z,84.9
2023-03-29T13:18:15.538Z,84.5
2023-03-29T13:20:43.794Z,84.7
2023-03-29T13:23:12.046Z,85.9
2023-03-29T13:24:26.782Z,85
2023-03-29T13:25:40.324Z,83.5
2023-03-29T13:28:08.584Z,84.8
2023-03-29T13:30:36.850Z,84
2023-03-29T13:33:05.095Z,85.5
2023-03-29T13:35:33.352Z,85.5
2023-03-29T13:38:01.617Z,85.8
2023-03-29T13:40:29.869Z,86.7
2023-03-29T13:45:26.386Z,86
2023-03-29T13:47:54.641Z,83.7
2023-03-29T13:49:09.378Z,85.3
2023-03-29T13:50:22.913Z,87.4
2023-03-29T13:52:51.173Z,85.7
2023-03-29T13:55:19.435Z,87.4
2023-03-29T13:57:47.689Z,86.4
2023-03-29T14:00:15.948Z,86.7
2023-03-29T14:02:44.204Z,86.4
2023-03-29T14:05:12.460Z,86.8
2023-03-29T14:07:40.716Z,86.8
2023-03-29T14:10:08.977Z,87.4
2023-03-29T14:12:37.227Z,86.9
2023-03-29T14:15:05.490Z,87.3
2023-03-29T14:17:33.748Z,85.6
2023-03-29T14:20:02.008Z,86.7
2023-03-29T14:22:30.264Z,85.5
2023-03-29T14:24:58.518Z,86.4
2023-03-29T14:27:26.777Z,87.3
2023-03-29T14:29:55.033Z,86
2023-03-29T14:32:23.293Z,85.4
2023-03-29T14:34:51.550Z,85.1
2023-03-29T14:37:19.803Z,84.8
2023-03-29T14:38:34.551Z,86.1
2023-03-29T14:39:48.101Z,84.7
2023-03-29T14:42:16.359Z,85.5
2023-03-29T14:47:12.871Z,85.5
2023-03-29T14:49:41.126Z,86
2023-03-29T14:52:09.384Z,84.7
2023-03-29T14:54:37.639Z,85.4
2023-03-29T14:57:05.892Z,85
2023-03-29T14:59:34.156Z,85
2023-03-29T15:02:02.408Z,84.3
2023-03-29T15:03:17.142Z,84.6
2023-03-29T15:04:30.682Z,83.8
2023-03-29T15:06:58.948Z,83.8
2023-03-29T15:09:27.200Z,85
2023-03-29T15:11:55.462Z,84.1
2023-03-29T15:14:23.716Z,82.4
2023-03-29T15:19:20.232Z,84.1
2023-03-29T15:21:48.482Z,81.5
2023-03-29T15:24:16.744Z,80.7
2023-03-29T15:26:45.004Z,80.1
2023-03-29T15:27:59.734Z,80.7
2023-03-29T15:29:13.272Z,81
2023-03-29T15:31:41.537Z,80
2023-03-29T15:34:09.794Z,80.5
2023-03-29T15:36:38.050Z,81.4
2023-03-29T15:39:06.301Z,80.8
2023-03-29T15:41:34.561Z,80.5
2023-03-29T15:44:02.823Z,80.9
2023-03-29T15:46:31.079Z,79.1
2023-03-29T15:51:27.592Z,78.7
2023-03-29T15:52:42.325Z,78.2
2023-03-29T15:53:55.871Z,79.6
2023-03-29T15:56:24.119Z,79
2023-03-29T15:58:52.379Z,79
2023-03-29T16:01:20.639Z,79.8
2023-03-29T16:03:48.898Z,77.2
2023-03-29T16:06:17.156Z,77.3
2023-03-29T16:08:45.405Z,77.5
2023-03-29T16:11:13.663Z,75.5
2023-03-29T16:13:41.927Z,77
2023-03-29T16:16:10.185Z,76.7
2023-03-29T16:17:24.909Z,76.1
2023-03-29T16:21:06.945Z,76
2023-03-29T16:23:35.207Z,75.8
2023-03-29T16:26:03.459Z,76.3
2023-03-29T16:28:31.720Z,76.2
2023-03-29T16:30:59.971Z,76.7
2023-03-29T16:33:28.230Z,75.1
2023-03-29T16:35:56.493Z,77.3
2023-03-29T16:38:24.747Z,78.7
2023-03-29T16:40:52.999Z,77.5
2023-03-29T16:42:07.740Z,77.6
2023-03-29T16:43:21.276Z,77.7
2023-03-29T16:45:49.533Z,77.3
2023-03-29T16:48:17.789Z,77.3
2023-03-29T16:53:14.305Z,76.5
2023-03-29T16:55:42.563Z,77.1
2023-03-29T16:58:10.825Z,74.4
2023-03-29T17:00:39.079Z,75.6
2023-03-29T17:03:07.332Z,76.5
2023-03-29T17:05:35.595Z,76.6
2023-03-29T17:06:50.327Z,77.9
2023-03-29T17:08:03.875Z,78.5
2023-03-29T17:10:32.123Z,77.9
2023-03-29T17:13:00.388Z,78.6
2023-03-29T17:15:28.643Z,79.2
2023-03-29T17:17:56.895Z,78.6
2023-03-29T17:20:25.157Z,79.8
2023-03-29T17:25:21.668Z,78.4
2023-03-29T17:27:49.922Z,79.6
2023-03-29T17:30:18.184Z,80
2023-03-29T17:31:32.914Z,80.1
2023-03-29T17:32:46.464Z,80.1
2023-03-29T17:35:14.722Z,79.7
2023-03-29T17:37:42.971Z,80.3
2023-03-29T17:40:11.235Z,80.1
2023-03-29T17:42:39.490Z,79.8
2023-03-29T17:45:07.744Z,79.7
2023-03-29T17:47:36.002Z,79.7
2023-03-29T17:50:04.263Z,81
2023-03-29T17:52:32.513Z,79.3
2023-03-29T17:56:15.503Z,78.4
2023-03-29T17:57:29.051Z,79
2023-03-29T17:59:57.303Z,78.8
2023-03-29T18:02:25.561Z,78.1
2023-03-29T18:04:53.820Z,76.4
2023-03-29T18:07:22.081Z,76.9
2023-03-29T18:09:50.340Z,76.4
2023-03-29T18:12:18.592Z,77.7
2023-03-29T18:14:46.848Z,77.7
2023-03-29T18:17:15.102Z,77.6
2023-03-29T18:19:43.361Z,77.2
2023-03-29T18:20:58.093Z,77.2
2023-03-29T18:22:11.641Z,76.1
2023-03-29T18:27:08.156Z,75.5
2023-03-29T18:29:36.407Z,74.3
2023-03-29T18:32:04.668Z,74.4
2023-03-29T18:34:32.927Z,75
2023-03-29T18:37:01.186Z,75
2023-03-29T18:39:29.444Z,73.8
2023-03-29T18:41:57.694Z,70.6
2023-03-29T18:44:25.954Z,70.2
2023-03-29T18:45:40.692Z,71.5
2023-03-29T18:46:54.232Z,73.2
2023-03-29T18:49:22.492Z,74.3
2023-03-29T18:51:50.748Z,75
2023-03-29T18:54:19.000Z,74.7
2023-03-29T18:59:15.513Z,74.6
2023-03-29T19:01:43.771Z,74.3
2023-03-29T19:04:12.028Z,74.7
2023-03-29T19:06:40.292Z,75.4
2023-03-29T19:09:08.540Z,75.7
2023-03-29T19:10:23.273Z,76.1
2023-03-29T19:11:36.819Z,75.1
2023-03-29T19:14:05.083Z,73.3
2023-03-29T19:16:33.336Z,73.1
2023-03-29T19:19:01.597Z,73.7
2023-03-29T19:21:29.845Z,72
2023-03-29T19:23:58.102Z,72.7
2023-03-29T19:26:26.365Z,73.5
2023-03-29T19:31:22.877Z,73
2023-03-29T19:33:51.134Z,72.7
2023-03-29T19:35:05.870Z,70.6
2023-03-29T19:36:19.417Z,70.4
2023-03-29T19:38:47.672Z,71.7
2023-03-29T19:41:15.932Z,70.8
2023-03-29T19:43:44.181Z,71.6
2023-03-29T19:46:12.438Z,70.4
2023-03-29T19:48:40.703Z,68.7
2023-03-29T19:51:08.959Z,69.9
2023-03-29T19:53:37.213Z,70.5
2023-03-29T19:56:05.474Z,70.3
2023-03-29T19:58:33.722Z,69.6
2023-03-29T20:01:01.988Z,70
2023-03-29T20:03:30.246Z,68.3
2023-03-29T20:05:58.502Z,68.1
2023-03-29T20:08:26.756Z,67.3
2023-03-29T20:10:55.019Z,67.5
2023-03-29T20:13:23.272Z,67.7
2023-03-29T20:15:51.530Z,67.6
2023-03-29T20:18:19.786Z,67.7
2023-03-29T20:20:48.038Z,69
2023-03-29T20:23:16.296Z,68.9
2023-03-29T20:24:31.048Z,67.2
2023-03-29T20:25:44.599Z,67.3
2023-03-29T20:28:12.855Z,67.3
2023-03-29T20:33:09.369Z,69.3
2023-03-29T20:35:37.620Z,68.1
2023-03-29T20:38:05.879Z,68.8
2023-03-29T20:40:34.133Z,68.5
2023-03-29T20:43:02.396Z,69.1
2023-03-29T20:45:30.651Z,69.5
2023-03-29T20:47:58.902Z,69.2
2023-03-29T20:49:13.644Z,69
2023-03-29T20:50:27.186Z,69.2
2023-03-29T20:52:55.442Z,69.4
2023-03-29T20:55:23.701Z,69.6
2023-03-29T20:57:51.954Z,68.5
2023-03-29T21:00:20.208Z,69.2
2023-03-29T21:05:16.728Z,69.5
2023-03-29T21:07:44.985Z,68.5
2023-03-29T21:10:13.244Z,67.8
2023-03-29T21:12:41.495Z,68.6
2023-03-29T21:13:56.233Z,69.9
2023-03-29T21:15:09.774Z,70.5
2023-03-29T21:17:38.035Z,68.4
2023-03-29T21:20:06.291Z,69.2
2023-03-29T21:22:34.543Z,69.3
2023-03-29T21:25:02.798Z,69.3
2023-03-29T21:27:31.063Z,69.4
2023-03-29T21:29:59.313Z,67.6
2023-03-29T21:32:27.573Z,66.4
2023-03-29T21:37:24.091Z,67
2023-03-29T21:38:38.824Z,66.2
2023-03-29T21:39:52.366Z,66.5
2023-03-29T21:42:20.617Z,67
2023-03-29T21:44:48.883Z,66.6
2023-03-29T21:47:17.132Z,66.2
2023-03-29T21:49:45.396Z,65.8
2023-03-29T21:52:13.650Z,64.9
2023-03-29T21:54:41.903Z,64.4
2023-03-29T21:57:10.166Z,65.1
2023-03-29T21:59:38.418Z,66.6
2023-03-29T22:02:06.676Z,66
2023-03-29T22:03:21.409Z,65.8
2023-03-29T22:07:03.440Z,65
2023-03-29T22:09:31.701Z,63.5
2023-03-29T22:11:59.960Z,61.5
2023-03-29T22:14:28.223Z,62
2023-03-29T22:16:56.468Z,62.1
2023-03-29T22:19:24.725Z,62.3
2023-03-29T22:21:52.983Z,60
2023-03-29T22:24:21.237Z,59
2023-03-29T22:26:49.497Z,58.6
2023-03-29T22:28:04.232Z,58.9
2023-03-29T22:29:17.776Z,58.8
2023-03-29T22:31:46.028Z,57.8
2023-03-29T22:34:14.289Z,56.4
2023-03-29T22:39:10.802Z,55
2023-03-29T22:41:39.064Z,56.6
2023-03-29T22:44:07.315Z,55.6
2023-03-29T22:46:35.570Z,51.5
2023-03-29T22:49:03.831Z,49.1
2023-03-29T22:51:32.083Z,48.5
2023-03-29T22:52:46.815Z,48.9
2023-03-29T22:54:00.361Z,49.7
2023-03-29T22:56:28.622Z,49.4
2023-03-29T22:58:56.876Z,48.1
2023-03-29T23:01:25.130Z,48.5
2023-03-29T23:03:53.392Z,47.9
2023-03-29T23:06:21.647Z,47.1
2023-03-29T23:11:18.158Z,47.2
2023-03-29T23:13:46.422Z,46
2023-03-29T23:16:14.671Z,44.9
2023-03-29T23:17:29.406Z,43.9
2023-03-29T23:18:42.949Z,43.9
2023-03-29T23:21:11.212Z,44.1
2023-03-29T23:23:39.469Z,43.5
2023-03-29T23:26:07.725Z,42.8
2023-03-29T23:28:35.980Z,42.6
2023-03-29T23:31:04.234Z,42.3
2023-03-29T23:33:32.496Z,42.6
2023-03-29T23:36:00.746Z,41.5
2023-03-29T23:38:29.006Z,41
2023-03-29T23:42:12.000Z,40.9
2023-03-29T23:43:25.539Z,40.2
2023-03-29T23:45:53.799Z,40.4
2023-03-29T23:48:22.050Z,41.1
2023-03-29T23:50:50.309Z,41.2
2023-03-29T23:53:18.563Z,40.3
2023-03-29T23:55:46.823Z,39.5
2023-03-29T23:58:15.078Z,39.2
